Overview Statistics Trail Chart Weather Telemetry Raw packets
 

This is the latest recevied weather packets stored in our database for station/object NL3D. If no packets are shown the sender has not sent any weather packets the latest 10 day(s).

<< 48 49 50 51 52 53 54 >>
Time Temp. Humidity Pressure Rain* Wind** Luminosity Snow
1777365706 6.11° C 68% 1007.5 hPa 0 mm - 0 W/m² -
1777365402 6.11° C 67% 1008 hPa 0 mm - 0 W/m² -
1777365100 6.11° C 66% 1007.4 hPa 0 mm - 0 W/m² -
1777364795 6.67° C 65% 1007.9 hPa 0 mm - 0 W/m² -
1777364490 6.11° C 67% 1007.6 hPa 0 mm - 0 W/m² -
1777364186 7.78° C 61% 1007.6 hPa 0 mm - 0 W/m² -
1777363883 7.22° C 56% 1007.6 hPa 0 mm - 0 W/m² -
1777363580 8.33° C 56% 1008 hPa 0 mm - 0 W/m² -
1777363276 8.33° C 53% 1007.6 hPa 0 mm - 0 W/m² -
1777362974 8.33° C 50% 1007.4 hPa 0 mm - 0 W/m² -
1777362671 8.33° C 50% 1007.7 hPa 0 mm - 0 W/m² -
1777362369 8.33° C 50% 1007.5 hPa 0 mm - 0 W/m² -
1777362065 8.33° C 50% 1007.4 hPa 0 mm - 0 W/m² -
1777361763 8.33° C 51% 1007.3 hPa 0 mm - 0 W/m² -
1777361460 8.33° C 50% 1007.4 hPa 0 mm - 0 W/m² -
1777361157 8.33° C 54% 1007.3 hPa 0 mm - 0 W/m² -
1777360855 8.89° C 49% 1007.1 hPa 0 mm - 0 W/m² -
1777360552 8.33° C 50% 1007.3 hPa 0 mm - 0 W/m² -
1777360249 8.33° C 51% 1007.4 hPa 0 mm - 0 W/m² -
1777359946 8.33° C 50% 1007.6 hPa 0 mm - 0 W/m² -
1777359643 7.78° C 52% 1007.6 hPa 0 mm - 0 W/m² -
1777359338 7.22° C 56% 1007.5 hPa 0 mm - 0 W/m² -
1777359037 6.11° C 68% 1007.7 hPa 0 mm - 0 W/m² -
1777358734 5.56° C 73% 1007.6 hPa 0 mm - 0 W/m² -
1777358431 5.56° C 73% 1007.9 hPa 0 mm - 0 W/m² -

* Rain latest hour (hover to see other rain measurements)
** Current wind speed in m/s (hover to see current wind gust speed)